sensor_id;sensor_type;location;lat;lon;timestamp;P1;durP1;ratioP1;P2;durP2;ratioP2
10295;SDS011;5193;51.032;6.356;2024-02-26T00:00:43;1.83;;;1.20;;
10295;SDS011;5193;51.032;6.356;2024-02-26T00:03:08;1.20;;;1.00;;
10295;SDS011;5193;51.032;6.356;2024-02-26T00:05:34;4.00;;;1.37;;
10295;SDS011;5193;51.032;6.356;2024-02-26T00:08:00;2.20;;;1.17;;
10295;SDS011;5193;51.032;6.356;2024-02-26T00:10:26;3.20;;;1.17;;
10295;SDS011;5193;51.032;6.356;2024-02-26T00:12:52;4.63;;;1.27;;
10295;SDS011;5193;51.032;6.356;2024-02-26T00:15:18;2.40;;;1.27;;
10295;SDS011;5193;51.032;6.356;2024-02-26T00:17:44;1.87;;;0.90;;
10295;SDS011;5193;51.032;6.356;2024-02-26T00:20:10;3.57;;;1.33;;
10295;SDS011;5193;51.032;6.356;2024-02-26T00:22:36;1.83;;;1.10;;
10295;SDS011;5193;51.032;6.356;2024-02-26T00:25:02;3.10;;;1.10;;
10295;SDS011;5193;51.032;6.356;2024-02-26T00:27:28;2.00;;;1.13;;
10295;SDS011;5193;51.032;6.356;2024-02-26T00:29:54;1.30;;;1.13;;
10295;SDS011;5193;51.032;6.356;2024-02-26T00:32:20;1.90;;;1.20;;
10295;SDS011;5193;51.032;6.356;2024-02-26T00:34:46;2.30;;;1.13;;
10295;SDS011;5193;51.032;6.356;2024-02-26T00:37:13;1.37;;;1.07;;
10295;SDS011;5193;51.032;6.356;2024-02-26T00:39:38;2.13;;;1.03;;
10295;SDS011;5193;51.032;6.356;2024-02-26T00:42:04;2.90;;;1.10;;
10295;SDS011;5193;51.032;6.356;2024-02-26T00:44:31;3.07;;;1.40;;
10295;SDS011;5193;51.032;6.356;2024-02-26T00:46:57;2.13;;;0.90;;
10295;SDS011;5193;51.032;6.356;2024-02-26T00:49:22;1.73;;;1.17;;
10295;SDS011;5193;51.032;6.356;2024-02-26T00:51:49;1.60;;;0.97;;
10295;SDS011;5193;51.032;6.356;2024-02-26T00:54:15;1.47;;;1.00;;
10295;SDS011;5193;51.032;6.356;2024-02-26T00:56:40;1.50;;;0.90;;
10295;SDS011;5193;51.032;6.356;2024-02-26T00:59:06;1.10;;;0.93;;
10295;SDS011;5193;51.032;6.356;2024-02-26T01:01:31;0.80;;;0.80;;
10295;SDS011;5193;51.032;6.356;2024-02-26T01:03:57;2.20;;;1.40;;
10295;SDS011;5193;51.032;6.356;2024-02-26T01:06:26;0.80;;;0.80;;
10295;SDS011;5193;51.032;6.356;2024-02-26T01:08:53;2.67;;;0.93;;
10295;SDS011;5193;51.032;6.356;2024-02-26T01:11:18;1.80;;;0.93;;
10295;SDS011;5193;51.032;6.356;2024-02-26T01:13:44;1.83;;;1.00;;
10295;SDS011;5193;51.032;6.356;2024-02-26T01:16:10;1.50;;;1.00;;
10295;SDS011;5193;51.032;6.356;2024-02-26T01:18:35;2.10;;;0.90;;
10295;SDS011;5193;51.032;6.356;2024-02-26T01:21:04;2.60;;;0.80;;
10295;SDS011;5193;51.032;6.356;2024-02-26T01:23:34;4.10;;;0.83;;
10295;SDS011;5193;51.032;6.356;2024-02-26T01:26:03;2.17;;;1.00;;
10295;SDS011;5193;51.032;6.356;2024-02-26T01:28:29;1.73;;;0.93;;
10295;SDS011;5193;51.032;6.356;2024-02-26T01:30:55;1.73;;;1.00;;
10295;SDS011;5193;51.032;6.356;2024-02-26T01:33:21;4.57;;;1.10;;
10295;SDS011;5193;51.032;6.356;2024-02-26T01:35:46;1.77;;;0.80;;
10295;SDS011;5193;51.032;6.356;2024-02-26T01:38:12;4.20;;;1.00;;
10295;SDS011;5193;51.032;6.356;2024-02-26T01:40:41;3.67;;;1.00;;
10295;SDS011;5193;51.032;6.356;2024-02-26T01:43:06;1.83;;;1.03;;
10295;SDS011;5193;51.032;6.356;2024-02-26T01:45:32;1.63;;;0.90;;
10295;SDS011;5193;51.032;6.356;2024-02-26T01:47:59;1.70;;;0.93;;
10295;SDS011;5193;51.032;6.356;2024-02-26T01:50:25;1.43;;;1.00;;
10295;SDS011;5193;51.032;6.356;2024-02-26T01:52:52;2.50;;;1.10;;
10295;SDS011;5193;51.032;6.356;2024-02-26T01:55:18;1.77;;;1.10;;
10295;SDS011;5193;51.032;6.356;2024-02-26T01:57:47;4.83;;;1.37;;
10295;SDS011;5193;51.032;6.356;2024-02-26T02:00:16;2.43;;;1.10;;
10295;SDS011;5193;51.032;6.356;2024-02-26T02:02:43;9.03;;;1.37;;
10295;SDS011;5193;51.032;6.356;2024-02-26T02:05:11;1.20;;;0.90;;
10295;SDS011;5193;51.032;6.356;2024-02-26T02:07:41;2.00;;;1.10;;
10295;SDS011;5193;51.032;6.356;2024-02-26T02:10:08;2.43;;;1.23;;
10295;SDS011;5193;51.032;6.356;2024-02-26T02:12:34;1.70;;;1.00;;
10295;SDS011;5193;51.032;6.356;2024-02-26T02:15:04;2.97;;;1.10;;
10295;SDS011;5193;51.032;6.356;2024-02-26T02:17:30;2.20;;;1.13;;
10295;SDS011;5193;51.032;6.356;2024-02-26T02:19:56;2.97;;;1.23;;
10295;SDS011;5193;51.032;6.356;2024-02-26T02:22:28;2.23;;;1.37;;
10295;SDS011;5193;51.032;6.356;2024-02-26T02:24:54;1.93;;;1.20;;
10295;SDS011;5193;51.032;6.356;2024-02-26T02:27:19;2.13;;;1.33;;
10295;SDS011;5193;51.032;6.356;2024-02-26T02:29:46;3.77;;;1.30;;
10295;SDS011;5193;51.032;6.356;2024-02-26T02:32:13;1.93;;;1.20;;
10295;SDS011;5193;51.032;6.356;2024-02-26T02:34:44;1.80;;;1.30;;
10295;SDS011;5193;51.032;6.356;2024-02-26T02:37:10;3.10;;;1.70;;
10295;SDS011;5193;51.032;6.356;2024-02-26T02:39:39;4.53;;;1.77;;
10295;SDS011;5193;51.032;6.356;2024-02-26T02:42:12;5.13;;;1.70;;
10295;SDS011;5193;51.032;6.356;2024-02-26T02:44:38;2.60;;;1.67;;
10295;SDS011;5193;51.032;6.356;2024-02-26T02:47:05;3.37;;;1.37;;
10295;SDS011;5193;51.032;6.356;2024-02-26T02:49:31;3.50;;;1.60;;
10295;SDS011;5193;51.032;6.356;2024-02-26T02:51:56;3.13;;;1.43;;
10295;SDS011;5193;51.032;6.356;2024-02-26T02:54:22;1.77;;;1.40;;
10295;SDS011;5193;51.032;6.356;2024-02-26T02:56:54;1.90;;;1.50;;
10295;SDS011;5193;51.032;6.356;2024-02-26T02:59:20;3.43;;;1.60;;
10295;SDS011;5193;51.032;6.356;2024-02-26T03:01:45;1.30;;;1.00;;
10295;SDS011;5193;51.032;6.356;2024-02-26T03:04:14;4.20;;;1.20;;
10295;SDS011;5193;51.032;6.356;2024-02-26T03:06:40;2.90;;;1.10;;
10295;SDS011;5193;51.032;6.356;2024-02-26T03:09:06;1.13;;;0.93;;
10295;SDS011;5193;51.032;6.356;2024-02-26T03:11:32;1.67;;;1.10;;
10295;SDS011;5193;51.032;6.356;2024-02-26T03:13:58;1.47;;;0.80;;
10295;SDS011;5193;51.032;6.356;2024-02-26T03:16:36;3.30;;;0.93;;
10295;SDS011;5193;51.032;6.356;2024-02-26T03:19:01;2.23;;;0.90;;
10295;SDS011;5193;51.032;6.356;2024-02-26T03:21:28;3.80;;;1.10;;
10295;SDS011;5193;51.032;6.356;2024-02-26T03:23:54;1.63;;;1.07;;
10295;SDS011;5193;51.032;6.356;2024-02-26T03:26:19;2.60;;;0.90;;
10295;SDS011;5193;51.032;6.356;2024-02-26T03:28:46;2.43;;;0.93;;
10295;SDS011;5193;51.032;6.356;2024-02-26T03:31:12;1.37;;;0.80;;
10295;SDS011;5193;51.032;6.356;2024-02-26T03:33:37;1.77;;;1.00;;
10295;SDS011;5193;51.032;6.356;2024-02-26T03:36:04;1.93;;;1.00;;
10295;SDS011;5193;51.032;6.356;2024-02-26T03:38:32;1.37;;;0.90;;
10295;SDS011;5193;51.032;6.356;2024-02-26T03:41:01;3.37;;;0.70;;
10295;SDS011;5193;51.032;6.356;2024-02-26T03:43:27;1.60;;;1.00;;
10295;SDS011;5193;51.032;6.356;2024-02-26T03:45:57;2.40;;;1.07;;
10295;SDS011;5193;51.032;6.356;2024-02-26T03:48:23;5.20;;;1.00;;
10295;SDS011;5193;51.032;6.356;2024-02-26T03:50:49;1.63;;;1.10;;
10295;SDS011;5193;51.032;6.356;2024-02-26T03:53:14;1.23;;;1.00;;
10295;SDS011;5193;51.032;6.356;2024-02-26T03:55:41;1.23;;;0.70;;
10295;SDS011;5193;51.032;6.356;2024-02-26T03:58:12;2.03;;;0.90;;
10295;SDS011;5193;51.032;6.356;2024-02-26T04:00:42;1.30;;;0.70;;
10295;SDS011;5193;51.032;6.356;2024-02-26T04:03:07;2.30;;;0.80;;
10295;SDS011;5193;51.032;6.356;2024-02-26T04:05:33;1.10;;;0.80;;
10295;SDS011;5193;51.032;6.356;2024-02-26T04:08:00;2.23;;;1.03;;
10295;SDS011;5193;51.032;6.356;2024-02-26T04:10:26;1.80;;;0.70;;
10295;SDS011;5193;51.032;6.356;2024-02-26T04:12:57;0.80;;;0.80;;
10295;SDS011;5193;51.032;6.356;2024-02-26T04:15:23;1.70;;;0.97;;
10295;SDS011;5193;51.032;6.356;2024-02-26T04:17:49;1.10;;;0.90;;
10295;SDS011;5193;51.032;6.356;2024-02-26T04:20:18;2.77;;;1.10;;
10295;SDS011;5193;51.032;6.356;2024-02-26T04:22:43;1.97;;;1.30;;
10295;SDS011;5193;51.032;6.356;2024-02-26T04:25:12;1.90;;;1.03;;
10295;SDS011;5193;51.032;6.356;2024-02-26T04:27:38;1.00;;;0.87;;
10295;SDS011;5193;51.032;6.356;2024-02-26T04:30:05;4.00;;;1.30;;
10295;SDS011;5193;51.032;6.356;2024-02-26T04:32:31;1.53;;;0.90;;
10295;SDS011;5193;51.032;6.356;2024-02-26T04:34:58;9.73;;;4.87;;
10295;SDS011;5193;51.032;6.356;2024-02-26T04:37:23;3.17;;;1.50;;
10295;SDS011;5193;51.032;6.356;2024-02-26T04:39:52;4.33;;;2.13;;
10295;SDS011;5193;51.032;6.356;2024-02-26T04:42:17;4.00;;;2.70;;
10295;SDS011;5193;51.032;6.356;2024-02-26T04:44:44;2.37;;;1.50;;
10295;SDS011;5193;51.032;6.356;2024-02-26T04:47:09;5.10;;;1.90;;
10295;SDS011;5193;51.032;6.356;2024-02-26T04:49:35;4.23;;;1.70;;
10295;SDS011;5193;51.032;6.356;2024-02-26T04:52:01;3.67;;;2.60;;
10295;SDS011;5193;51.032;6.356;2024-02-26T04:54:29;3.80;;;2.90;;
10295;SDS011;5193;51.032;6.356;2024-02-26T04:56:55;2.47;;;1.60;;
10295;SDS011;5193;51.032;6.356;2024-02-26T04:59:20;3.40;;;2.07;;
10295;SDS011;5193;51.032;6.356;2024-02-26T05:01:46;2.27;;;1.70;;
10295;SDS011;5193;51.032;6.356;2024-02-26T05:04:12;7.60;;;3.50;;
10295;SDS011;5193;51.032;6.356;2024-02-26T05:06:38;7.93;;;2.87;;
10295;SDS011;5193;51.032;6.356;2024-02-26T05:09:08;9.30;;;3.70;;
10295;SDS011;5193;51.032;6.356;2024-02-26T05:11:33;7.33;;;2.97;;
10295;SDS011;5193;51.032;6.356;2024-02-26T05:14:00;3.00;;;1.70;;
10295;SDS011;5193;51.032;6.356;2024-02-26T05:16:26;4.67;;;2.60;;
10295;SDS011;5193;51.032;6.356;2024-02-26T05:18:52;10.90;;;4.03;;
10295;SDS011;5193;51.032;6.356;2024-02-26T05:21:18;4.90;;;1.90;;
10295;SDS011;5193;51.032;6.356;2024-02-26T05:23:43;3.10;;;2.10;;
10295;SDS011;5193;51.032;6.356;2024-02-26T05:26:18;4.30;;;2.57;;
10295;SDS011;5193;51.032;6.356;2024-02-26T05:28:47;9.40;;;3.90;;
10295;SDS011;5193;51.032;6.356;2024-02-26T05:31:14;5.57;;;2.57;;
10295;SDS011;5193;51.032;6.356;2024-02-26T05:33:40;2.67;;;1.80;;
10295;SDS011;5193;51.032;6.356;2024-02-26T05:36:19;3.20;;;1.60;;
10295;SDS011;5193;51.032;6.356;2024-02-26T05:38:48;4.80;;;2.17;;
10295;SDS011;5193;51.032;6.356;2024-02-26T05:41:14;7.50;;;1.87;;
10295;SDS011;5193;51.032;6.356;2024-02-26T05:43:41;2.83;;;1.70;;
10295;SDS011;5193;51.032;6.356;2024-02-26T05:46:06;2.10;;;1.70;;
10295;SDS011;5193;51.032;6.356;2024-02-26T05:48:35;1.93;;;1.60;;
10295;SDS011;5193;51.032;6.356;2024-02-26T05:51:01;3.53;;;2.03;;
10295;SDS011;5193;51.032;6.356;2024-02-26T05:53:27;3.53;;;2.20;;
10295;SDS011;5193;51.032;6.356;2024-02-26T05:55:52;6.00;;;2.07;;
10295;SDS011;5193;51.032;6.356;2024-02-26T05:58:18;4.80;;;1.90;;
10295;SDS011;5193;51.032;6.356;2024-02-26T06:00:44;1.77;;;1.57;;
10295;SDS011;5193;51.032;6.356;2024-02-26T06:03:12;2.90;;;1.53;;
10295;SDS011;5193;51.032;6.356;2024-02-26T06:05:38;2.50;;;1.87;;
10295;SDS011;5193;51.032;6.356;2024-02-26T06:08:03;4.43;;;1.80;;
10295;SDS011;5193;51.032;6.356;2024-02-26T06:10:30;3.07;;;2.23;;
10295;SDS011;5193;51.032;6.356;2024-02-26T06:12:56;4.00;;;1.70;;
10295;SDS011;5193;51.032;6.356;2024-02-26T06:15:21;2.53;;;1.67;;
10295;SDS011;5193;51.032;6.356;2024-02-26T06:17:47;2.90;;;1.90;;
10295;SDS011;5193;51.032;6.356;2024-02-26T06:20:13;2.27;;;1.70;;
10295;SDS011;5193;51.032;6.356;2024-02-26T06:22:42;2.77;;;1.90;;
10295;SDS011;5193;51.032;6.356;2024-02-26T06:25:08;1.90;;;1.70;;
10295;SDS011;5193;51.032;6.356;2024-02-26T06:27:34;3.40;;;2.07;;
10295;SDS011;5193;51.032;6.356;2024-02-26T06:30:05;3.53;;;1.70;;
10295;SDS011;5193;51.032;6.356;2024-02-26T06:32:35;2.33;;;1.70;;
10295;SDS011;5193;51.032;6.356;2024-02-26T06:35:01;2.83;;;1.70;;
10295;SDS011;5193;51.032;6.356;2024-02-26T06:37:26;3.20;;;1.73;;
10295;SDS011;5193;51.032;6.356;2024-02-26T06:39:52;3.57;;;1.70;;
10295;SDS011;5193;51.032;6.356;2024-02-26T06:42:20;3.63;;;1.90;;
10295;SDS011;5193;51.032;6.356;2024-02-26T06:44:49;2.03;;;1.60;;
10295;SDS011;5193;51.032;6.356;2024-02-26T06:47:14;3.23;;;1.93;;
10295;SDS011;5193;51.032;6.356;2024-02-26T06:49:44;4.20;;;1.93;;
10295;SDS011;5193;51.032;6.356;2024-02-26T06:52:10;3.47;;;1.77;;
10295;SDS011;5193;51.032;6.356;2024-02-26T06:54:37;3.20;;;2.10;;
10295;SDS011;5193;51.032;6.356;2024-02-26T06:57:04;2.57;;;1.87;;
10295;SDS011;5193;51.032;6.356;2024-02-26T06:59:36;2.17;;;1.80;;
10295;SDS011;5193;51.032;6.356;2024-02-26T07:02:01;2.83;;;2.00;;
10295;SDS011;5193;51.032;6.356;2024-02-26T07:04:27;2.20;;;1.77;;
10295;SDS011;5193;51.032;6.356;2024-02-26T07:06:53;2.37;;;1.93;;
10295;SDS011;5193;51.032;6.356;2024-02-26T07:09:19;3.97;;;2.07;;
10295;SDS011;5193;51.032;6.356;2024-02-26T07:11:50;6.47;;;2.30;;
10295;SDS011;5193;51.032;6.356;2024-02-26T07:14:18;3.60;;;2.20;;
10295;SDS011;5193;51.032;6.356;2024-02-26T07:16:44;2.00;;;1.77;;
10295;SDS011;5193;51.032;6.356;2024-02-26T07:19:11;4.30;;;2.13;;
10295;SDS011;5193;51.032;6.356;2024-02-26T07:21:36;3.43;;;1.97;;
10295;SDS011;5193;51.032;6.356;2024-02-26T07:24:02;2.90;;;1.63;;
10295;SDS011;5193;51.032;6.356;2024-02-26T07:26:37;3.67;;;2.20;;
10295;SDS011;5193;51.032;6.356;2024-02-26T07:29:02;2.40;;;2.20;;
10295;SDS011;5193;51.032;6.356;2024-02-26T07:31:30;3.53;;;1.67;;
10295;SDS011;5193;51.032;6.356;2024-02-26T07:33:56;4.33;;;2.13;;
10295;SDS011;5193;51.032;6.356;2024-02-26T07:36:21;3.10;;;2.20;;
10295;SDS011;5193;51.032;6.356;2024-02-26T07:38:50;6.07;;;2.00;;
10295;SDS011;5193;51.032;6.356;2024-02-26T07:41:17;2.27;;;1.73;;
10295;SDS011;5193;51.032;6.356;2024-02-26T07:43:42;3.17;;;2.30;;
10295;SDS011;5193;51.032;6.356;2024-02-26T07:46:10;4.23;;;2.30;;
10295;SDS011;5193;51.032;6.356;2024-02-26T07:48:37;2.67;;;1.53;;
10295;SDS011;5193;51.032;6.356;2024-02-26T07:51:06;2.83;;;2.00;;
10295;SDS011;5193;51.032;6.356;2024-02-26T07:53:35;5.10;;;2.60;;
10295;SDS011;5193;51.032;6.356;2024-02-26T07:56:02;3.57;;;1.97;;
10295;SDS011;5193;51.032;6.356;2024-02-26T07:58:28;5.77;;;2.97;;
10295;SDS011;5193;51.032;6.356;2024-02-26T08:00:54;2.97;;;2.30;;
10295;SDS011;5193;51.032;6.356;2024-02-26T08:03:19;2.77;;;2.27;;
10295;SDS011;5193;51.032;6.356;2024-02-26T08:05:45;3.00;;;1.83;;
10295;SDS011;5193;51.032;6.356;2024-02-26T08:08:13;2.67;;;1.93;;
10295;SDS011;5193;51.032;6.356;2024-02-26T08:10:40;4.90;;;2.20;;
10295;SDS011;5193;51.032;6.356;2024-02-26T08:13:06;4.33;;;2.00;;
10295;SDS011;5193;51.032;6.356;2024-02-26T08:15:32;3.77;;;1.77;;
10295;SDS011;5193;51.032;6.356;2024-02-26T08:18:18;4.80;;;2.50;;
10295;SDS011;5193;51.032;6.356;2024-02-26T08:20:47;7.73;;;2.23;;
10295;SDS011;5193;51.032;6.356;2024-02-26T08:23:16;6.00;;;2.50;;
10295;SDS011;5193;51.032;6.356;2024-02-26T08:25:42;3.50;;;2.20;;
10295;SDS011;5193;51.032;6.356;2024-02-26T08:28:08;2.50;;;2.10;;
10295;SDS011;5193;51.032;6.356;2024-02-26T08:30:37;2.30;;;1.93;;
10295;SDS011;5193;51.032;6.356;2024-02-26T08:33:03;4.67;;;1.90;;
10295;SDS011;5193;51.032;6.356;2024-02-26T08:35:35;4.43;;;2.10;;
10295;SDS011;5193;51.032;6.356;2024-02-26T08:38:01;2.53;;;1.93;;
10295;SDS011;5193;51.032;6.356;2024-02-26T08:40:27;3.00;;;2.20;;
10295;SDS011;5193;51.032;6.356;2024-02-26T08:42:54;2.87;;;1.87;;
10295;SDS011;5193;51.032;6.356;2024-02-26T08:45:20;4.60;;;2.00;;
10295;SDS011;5193;51.032;6.356;2024-02-26T08:47:47;3.00;;;2.23;;
10295;SDS011;5193;51.032;6.356;2024-02-26T08:50:14;3.23;;;1.63;;
10295;SDS011;5193;51.032;6.356;2024-02-26T08:52:41;3.20;;;1.93;;
10295;SDS011;5193;51.032;6.356;2024-02-26T08:55:06;4.70;;;2.30;;
10295;SDS011;5193;51.032;6.356;2024-02-26T08:57:35;2.57;;;2.20;;
10295;SDS011;5193;51.032;6.356;2024-02-26T09:00:01;4.37;;;2.07;;
10295;SDS011;5193;51.032;6.356;2024-02-26T09:02:26;4.00;;;2.30;;
10295;SDS011;5193;51.032;6.356;2024-02-26T09:04:52;2.63;;;2.20;;
10295;SDS011;5193;51.032;6.356;2024-02-26T09:07:20;5.53;;;2.20;;
10295;SDS011;5193;51.032;6.356;2024-02-26T09:09:46;4.57;;;2.80;;
10295;SDS011;5193;51.032;6.356;2024-02-26T09:12:12;3.03;;;2.23;;
10295;SDS011;5193;51.032;6.356;2024-02-26T09:14:37;3.07;;;2.43;;
10295;SDS011;5193;51.032;6.356;2024-02-26T09:17:06;5.20;;;2.10;;
10295;SDS011;5193;51.032;6.356;2024-02-26T09:19:33;4.20;;;2.60;;
10295;SDS011;5193;51.032;6.356;2024-02-26T09:21:59;2.97;;;2.20;;
10295;SDS011;5193;51.032;6.356;2024-02-26T09:24:26;2.40;;;2.03;;
10295;SDS011;5193;51.032;6.356;2024-02-26T09:26:52;2.93;;;2.10;;
10295;SDS011;5193;51.032;6.356;2024-02-26T09:29:18;3.23;;;2.20;;
10295;SDS011;5193;51.032;6.356;2024-02-26T09:31:43;2.83;;;2.03;;
10295;SDS011;5193;51.032;6.356;2024-02-26T09:34:12;5.43;;;2.63;;
10295;SDS011;5193;51.032;6.356;2024-02-26T09:36:38;3.13;;;2.17;;
10295;SDS011;5193;51.032;6.356;2024-02-26T09:39:04;3.73;;;3.03;;
10295;SDS011;5193;51.032;6.356;2024-02-26T09:41:30;3.90;;;2.77;;
10295;SDS011;5193;51.032;6.356;2024-02-26T09:43:57;2.83;;;2.20;;
10295;SDS011;5193;51.032;6.356;2024-02-26T09:46:25;3.93;;;2.57;;
10295;SDS011;5193;51.032;6.356;2024-02-26T09:48:51;7.37;;;4.80;;
10295;SDS011;5193;51.032;6.356;2024-02-26T09:51:17;6.93;;;3.80;;
10295;SDS011;5193;51.032;6.356;2024-02-26T09:53:43;6.63;;;4.33;;
10295;SDS011;5193;51.032;6.356;2024-02-26T09:56:13;8.67;;;6.13;;
10295;SDS011;5193;51.032;6.356;2024-02-26T09:58:42;5.77;;;3.87;;
10295;SDS011;5193;51.032;6.356;2024-02-26T10:01:11;10.00;;;6.10;;
10295;SDS011;5193;51.032;6.356;2024-02-26T10:03:42;8.03;;;4.57;;
10295;SDS011;5193;51.032;6.356;2024-02-26T10:06:10;18.87;;;6.97;;
10295;SDS011;5193;51.032;6.356;2024-02-26T10:08:36;11.83;;;6.87;;
10295;SDS011;5193;51.032;6.356;2024-02-26T10:11:02;24.67;;;13.47;;
10295;SDS011;5193;51.032;6.356;2024-02-26T10:13:29;5.87;;;3.67;;
10295;SDS011;5193;51.032;6.356;2024-02-26T10:15:55;7.57;;;3.57;;
10295;SDS011;5193;51.032;6.356;2024-02-26T10:18:22;7.13;;;4.27;;
10295;SDS011;5193;51.032;6.356;2024-02-26T10:23:18;9.20;;;3.90;;
10295;SDS011;5193;51.032;6.356;2024-02-26T10:25:53;4.87;;;4.37;;
10295;SDS011;5193;51.032;6.356;2024-02-26T10:28:22;11.43;;;4.87;;
10295;SDS011;5193;51.032;6.356;2024-02-26T10:30:48;6.40;;;3.60;;
10295;SDS011;5193;51.032;6.356;2024-02-26T10:33:13;5.93;;;3.90;;
10295;SDS011;5193;51.032;6.356;2024-02-26T10:35:40;8.30;;;6.07;;
10295;SDS011;5193;51.032;6.356;2024-02-26T10:38:10;4.97;;;4.40;;
10295;SDS011;5193;51.032;6.356;2024-02-26T10:40:36;7.60;;;5.60;;
10295;SDS011;5193;51.032;6.356;2024-02-26T10:43:02;13.10;;;8.40;;
10295;SDS011;5193;51.032;6.356;2024-02-26T10:45:27;20.90;;;11.23;;
10295;SDS011;5193;51.032;6.356;2024-02-26T10:47:53;14.97;;;8.40;;
10295;SDS011;5193;51.032;6.356;2024-02-26T10:50:19;13.57;;;7.27;;
10295;SDS011;5193;51.032;6.356;2024-02-26T10:52:45;18.20;;;8.83;;
10295;SDS011;5193;51.032;6.356;2024-02-26T10:55:13;14.60;;;8.53;;
10295;SDS011;5193;51.032;6.356;2024-02-26T10:57:43;14.97;;;8.47;;
10295;SDS011;5193;51.032;6.356;2024-02-26T11:00:10;17.60;;;9.40;;
10295;SDS011;5193;51.032;6.356;2024-02-26T11:02:40;12.53;;;6.77;;
10295;SDS011;5193;51.032;6.356;2024-02-26T11:05:06;13.43;;;8.13;;
10295;SDS011;5193;51.032;6.356;2024-02-26T11:07:34;14.30;;;7.80;;
10295;SDS011;5193;51.032;6.356;2024-02-26T11:10:00;8.93;;;4.60;;
10295;SDS011;5193;51.032;6.356;2024-02-26T11:12:28;21.37;;;11.53;;
10295;SDS011;5193;51.032;6.356;2024-02-26T11:14:56;16.70;;;10.20;;
10295;SDS011;5193;51.032;6.356;2024-02-26T11:17:26;18.23;;;8.67;;
10295;SDS011;5193;51.032;6.356;2024-02-26T11:19:56;12.30;;;7.33;;
10295;SDS011;5193;51.032;6.356;2024-02-26T11:22:26;14.67;;;8.03;;
10295;SDS011;5193;51.032;6.356;2024-02-26T11:24:52;13.90;;;8.80;;
10295;SDS011;5193;51.032;6.356;2024-02-26T11:27:19;10.13;;;4.90;;
10295;SDS011;5193;51.032;6.356;2024-02-26T11:29:49;9.97;;;5.73;;
10295;SDS011;5193;51.032;6.356;2024-02-26T11:32:17;9.37;;;6.77;;
10295;SDS011;5193;51.032;6.356;2024-02-26T11:34:43;4.73;;;3.30;;
10295;SDS011;5193;51.032;6.356;2024-02-26T11:37:10;7.03;;;3.23;;
10295;SDS011;5193;51.032;6.356;2024-02-26T11:39:36;14.63;;;5.03;;
10295;SDS011;5193;51.032;6.356;2024-02-26T11:42:05;5.63;;;3.80;;
10295;SDS011;5193;51.032;6.356;2024-02-26T11:44:31;4.10;;;3.03;;
10295;SDS011;5193;51.032;6.356;2024-02-26T11:46:57;4.33;;;3.10;;
10295;SDS011;5193;51.032;6.356;2024-02-26T11:51:53;6.10;;;3.70;;
10295;SDS011;5193;51.032;6.356;2024-02-26T11:57:25;3.03;;;2.73;;
10295;SDS011;5193;51.032;6.356;2024-02-26T11:59:52;5.73;;;2.30;;
10295;SDS011;5193;51.032;6.356;2024-02-26T12:05:12;5.47;;;2.00;;
10295;SDS011;5193;51.032;6.356;2024-02-26T12:07:42;3.57;;;3.00;;
10295;SDS011;5193;51.032;6.356;2024-02-26T12:10:23;4.63;;;3.33;;
10295;SDS011;5193;51.032;6.356;2024-02-26T12:13:33;8.97;;;5.40;;
10295;SDS011;5193;51.032;6.356;2024-02-26T12:15:56;6.27;;;4.60;;
10295;SDS011;5193;51.032;6.356;2024-02-26T12:18:23;7.03;;;5.30;;
10295;SDS011;5193;51.032;6.356;2024-02-26T12:23:43;4.73;;;3.50;;
10295;SDS011;5193;51.032;6.356;2024-02-26T12:26:10;4.80;;;3.87;;
10295;SDS011;5193;51.032;6.356;2024-02-26T12:28:37;20.20;;;13.13;;
10295;SDS011;5193;51.032;6.356;2024-02-26T12:31:03;4.00;;;3.03;;
10295;SDS011;5193;51.032;6.356;2024-02-26T12:33:29;4.47;;;4.07;;
10295;SDS011;5193;51.032;6.356;2024-02-26T12:35:55;8.30;;;3.80;;
10295;SDS011;5193;51.032;6.356;2024-02-26T12:38:21;3.97;;;3.17;;
10295;SDS011;5193;51.032;6.356;2024-02-26T12:40:47;4.80;;;3.20;;
10295;SDS011;5193;51.032;6.356;2024-02-26T12:43:14;5.47;;;3.70;;
10295;SDS011;5193;51.032;6.356;2024-02-26T12:45:40;4.57;;;3.33;;
10295;SDS011;5193;51.032;6.356;2024-02-26T12:48:06;6.53;;;4.67;;
10295;SDS011;5193;51.032;6.356;2024-02-26T12:50:32;9.00;;;4.80;;
10295;SDS011;5193;51.032;6.356;2024-02-26T12:52:58;5.57;;;4.17;;
10295;SDS011;5193;51.032;6.356;2024-02-26T12:55:24;5.33;;;3.67;;
10295;SDS011;5193;51.032;6.356;2024-02-26T12:57:51;6.60;;;3.73;;
10295;SDS011;5193;51.032;6.356;2024-02-26T13:00:18;6.63;;;4.13;;
10295;SDS011;5193;51.032;6.356;2024-02-26T13:02:50;5.67;;;3.97;;
10295;SDS011;5193;51.032;6.356;2024-02-26T13:05:16;5.03;;;3.93;;
10295;SDS011;5193;51.032;6.356;2024-02-26T13:07:44;6.40;;;4.10;;
10295;SDS011;5193;51.032;6.356;2024-02-26T13:10:13;5.90;;;4.67;;
10295;SDS011;5193;51.032;6.356;2024-02-26T13:12:49;5.10;;;3.97;;
10295;SDS011;5193;51.032;6.356;2024-02-26T13:15:21;11.50;;;5.33;;
10295;SDS011;5193;51.032;6.356;2024-02-26T13:17:47;6.97;;;4.50;;
10295;SDS011;5193;51.032;6.356;2024-02-26T13:20:24;6.67;;;4.87;;
10295;SDS011;5193;51.032;6.356;2024-02-26T13:22:51;9.13;;;5.30;;
10295;SDS011;5193;51.032;6.356;2024-02-26T13:25:24;6.23;;;4.33;;
10295;SDS011;5193;51.032;6.356;2024-02-26T13:27:49;9.23;;;5.53;;
10295;SDS011;5193;51.032;6.356;2024-02-26T13:30:15;9.87;;;6.03;;
10295;SDS011;5193;51.032;6.356;2024-02-26T13:32:41;9.10;;;6.33;;
10295;SDS011;5193;51.032;6.356;2024-02-26T13:35:08;9.10;;;6.37;;
10295;SDS011;5193;51.032;6.356;2024-02-26T13:37:38;9.53;;;6.17;;
10295;SDS011;5193;51.032;6.356;2024-02-26T13:40:10;10.20;;;6.50;;
10295;SDS011;5193;51.032;6.356;2024-02-26T13:42:39;10.63;;;7.13;;
10295;SDS011;5193;51.032;6.356;2024-02-26T13:45:04;10.70;;;6.33;;
10295;SDS011;5193;51.032;6.356;2024-02-26T13:47:35;9.37;;;6.70;;
10295;SDS011;5193;51.032;6.356;2024-02-26T13:50:04;7.97;;;6.27;;
10295;SDS011;5193;51.032;6.356;2024-02-26T13:52:30;11.93;;;7.23;;
10295;SDS011;5193;51.032;6.356;2024-02-26T13:54:57;10.27;;;7.40;;
10295;SDS011;5193;51.032;6.356;2024-02-26T13:57:24;9.40;;;6.90;;
10295;SDS011;5193;51.032;6.356;2024-02-26T13:59:50;14.47;;;9.37;;
10295;SDS011;5193;51.032;6.356;2024-02-26T14:02:17;11.40;;;7.40;;
10295;SDS011;5193;51.032;6.356;2024-02-26T14:04:42;10.33;;;7.03;;
10295;SDS011;5193;51.032;6.356;2024-02-26T14:07:12;10.57;;;7.20;;
10295;SDS011;5193;51.032;6.356;2024-02-26T14:09:38;9.00;;;6.57;;
10295;SDS011;5193;51.032;6.356;2024-02-26T14:12:04;8.80;;;5.77;;
10295;SDS011;5193;51.032;6.356;2024-02-26T14:14:31;8.13;;;7.13;;
10295;SDS011;5193;51.032;6.356;2024-02-26T14:17:03;8.83;;;7.40;;
10295;SDS011;5193;51.032;6.356;2024-02-26T14:19:29;10.10;;;7.23;;
10295;SDS011;5193;51.032;6.356;2024-02-26T14:25:16;9.67;;;7.70;;
10295;SDS011;5193;51.032;6.356;2024-02-26T14:27:42;9.73;;;7.27;;
10295;SDS011;5193;51.032;6.356;2024-02-26T14:30:08;14.90;;;11.57;;
10295;SDS011;5193;51.032;6.356;2024-02-26T14:32:36;11.60;;;8.93;;
10295;SDS011;5193;51.032;6.356;2024-02-26T14:35:02;7.97;;;6.20;;
10295;SDS011;5193;51.032;6.356;2024-02-26T14:37:31;10.63;;;8.00;;
10295;SDS011;5193;51.032;6.356;2024-02-26T14:40:01;9.60;;;7.60;;
10295;SDS011;5193;51.032;6.356;2024-02-26T14:42:31;8.77;;;7.17;;
10295;SDS011;5193;51.032;6.356;2024-02-26T14:44:56;8.97;;;7.43;;
10295;SDS011;5193;51.032;6.356;2024-02-26T14:47:25;10.37;;;7.53;;
10295;SDS011;5193;51.032;6.356;2024-02-26T14:49:58;12.37;;;9.03;;
10295;SDS011;5193;51.032;6.356;2024-02-26T14:52:24;13.50;;;9.50;;
10295;SDS011;5193;51.032;6.356;2024-02-26T14:54:50;12.10;;;8.83;;
10295;SDS011;5193;51.032;6.356;2024-02-26T14:57:19;14.27;;;7.87;;
10295;SDS011;5193;51.032;6.356;2024-02-26T14:59:44;12.13;;;7.60;;
10295;SDS011;5193;51.032;6.356;2024-02-26T15:02:10;18.53;;;8.97;;
10295;SDS011;5193;51.032;6.356;2024-02-26T15:04:36;11.93;;;8.23;;
10295;SDS011;5193;51.032;6.356;2024-02-26T15:07:05;10.03;;;7.60;;
10295;SDS011;5193;51.032;6.356;2024-02-26T15:09:31;10.97;;;8.83;;
10295;SDS011;5193;51.032;6.356;2024-02-26T15:12:00;10.77;;;7.97;;
10295;SDS011;5193;51.032;6.356;2024-02-26T15:14:27;10.10;;;7.30;;
10295;SDS011;5193;51.032;6.356;2024-02-26T15:16:53;12.30;;;8.00;;